createdAt,value
2018-11-25T00:00:33.636Z,54.78
2018-11-25T00:03:06.350Z,54.91
2018-11-25T00:05:38.447Z,54.50
2018-11-25T00:08:25.043Z,54.74
2018-11-25T00:10:57.358Z,54.41
2018-11-25T00:13:29.353Z,54.54
2018-11-25T00:16:01.267Z,54.36
2018-11-25T00:18:33.104Z,54.74
2018-11-25T00:21:05.092Z,54.29
2018-11-25T00:23:36.962Z,54.32
2018-11-25T00:26:09.031Z,54.58
2018-11-25T00:28:40.830Z,54.31
2018-11-25T00:31:12.447Z,54.08
2018-11-25T00:33:45.095Z,54.87
2018-11-25T00:36:16.864Z,54.44
2018-11-25T00:38:49.656Z,54.52
2018-11-25T00:41:21.506Z,53.90
2018-11-25T00:43:53.673Z,54.08
2018-11-25T00:46:25.348Z,53.52
2018-11-25T00:48:57.071Z,53.79
2018-11-25T00:51:29.764Z,54.42
2018-11-25T00:54:01.888Z,54.18
2018-11-25T00:56:33.608Z,54.23
2018-11-25T00:59:05.620Z,54.92
2018-11-25T01:01:37.667Z,54.24
2018-11-25T01:04:09.752Z,54.70
2018-11-25T01:06:41.525Z,54.32
2018-11-25T01:09:13.634Z,53.62
2018-11-25T01:11:45.883Z,54.36
2018-11-25T01:14:17.861Z,54.42
2018-11-25T01:16:49.769Z,54.42
2018-11-25T01:19:21.650Z,54.19
2018-11-25T01:21:53.355Z,54.80
2018-11-25T01:24:25.611Z,54.27
2018-11-25T01:26:57.470Z,55.04
2018-11-25T01:29:29.237Z,54.51
2018-11-25T01:32:01.373Z,55.55
2018-11-25T01:34:33.683Z,54.86
2018-11-25T01:37:05.364Z,55.19
2018-11-25T01:39:37.025Z,54.70
2018-11-25T01:42:09.612Z,54.78
2018-11-25T01:44:41.350Z,55.29
2018-11-25T01:47:13.935Z,54.83
2018-11-25T01:49:46.092Z,55.08
2018-11-25T01:52:18.131Z,54.81
2018-11-25T01:54:50.049Z,54.39
2018-11-25T01:57:21.745Z,54.89
2018-11-25T01:59:53.268Z,54.75
2018-11-25T02:02:25.116Z,53.01
2018-11-25T02:04:57.761Z,51.67
2018-11-25T02:07:29.542Z,51.10
2018-11-25T02:10:01.461Z,51.02
2018-11-25T02:12:33.542Z,52.31
2018-11-25T02:15:05.644Z,51.89
2018-11-25T02:17:37.338Z,51.52
2018-11-25T02:20:12.342Z,50.67
2018-11-25T02:22:44.088Z,51.44
2018-11-25T02:25:16.233Z,51.18
2018-11-25T02:27:48.435Z,50.34
2018-11-25T02:30:20.664Z,50.58
2018-11-25T02:32:52.579Z,50.72
2018-11-25T02:35:25.341Z,50.30
2018-11-25T02:37:57.347Z,49.94
2018-11-25T02:40:29.171Z,50.48
2018-11-25T02:43:00.888Z,49.83
2018-11-25T02:45:32.698Z,50.50
2018-11-25T02:48:04.235Z,50.53
2018-11-25T02:50:36.297Z,50.62
2018-11-25T02:53:08.930Z,50.58
2018-11-25T02:55:40.915Z,50.95
2018-11-25T02:58:13.703Z,50.45
2018-11-25T03:00:45.707Z,50.90
2018-11-25T03:03:17.692Z,50.87
2018-11-25T03:05:49.974Z,50.69
2018-11-25T03:08:21.814Z,50.08
2018-11-25T03:10:54.036Z,50.88
2018-11-25T03:13:25.907Z,51.09
2018-11-25T03:15:57.855Z,50.54
2018-11-25T03:18:29.607Z,50.79
2018-11-25T03:21:01.975Z,50.90
2018-11-25T03:23:33.930Z,51.17
2018-11-25T03:26:05.678Z,51.00
2018-11-25T03:28:37.213Z,50.94
2018-11-25T03:31:09.067Z,51.43
2018-11-25T03:33:41.352Z,50.89
2018-11-25T03:36:14.083Z,51.77
2018-11-25T03:38:45.840Z,52.10
2018-11-25T03:41:17.572Z,50.90
2018-11-25T03:43:49.845Z,50.97
2018-11-25T03:46:21.602Z,51.99
2018-11-25T03:48:53.720Z,51.92
2018-11-25T03:51:26.364Z,51.39
2018-11-25T03:53:57.981Z,50.88
2018-11-25T03:56:29.558Z,51.74
2018-11-25T03:59:01.505Z,51.60
2018-11-25T04:01:33.127Z,52.37
2018-11-25T04:04:05.676Z,51.38
2018-11-25T04:06:37.431Z,52.29
2018-11-25T04:09:10.822Z,52.26
2018-11-25T04:11:42.639Z,51.30
2018-11-25T04:14:15.217Z,51.73
2018-11-25T04:16:47.096Z,51.39
2018-11-25T04:19:18.906Z,51.83
2018-11-25T04:21:50.409Z,52.07
2018-11-25T04:24:22.270Z,51.62
2018-11-25T04:26:53.783Z,51.33
2018-11-25T04:29:26.248Z,51.26
2018-11-25T04:31:57.921Z,50.65
2018-11-25T04:34:29.582Z,50.18
2018-11-25T04:37:01.777Z,50.03
2018-11-25T04:39:33.394Z,49.43
2018-11-25T04:42:05.072Z,49.69
2018-11-25T04:44:36.513Z,49.93
2018-11-25T04:47:08.050Z,49.39
2018-11-25T04:49:39.603Z,48.61
2018-11-25T04:52:11.253Z,49.46
2018-11-25T04:54:42.771Z,49.28
2018-11-25T04:57:14.267Z,49.25
2018-11-25T04:59:45.869Z,49.10
2018-11-25T05:02:17.579Z,49.66
2018-11-25T05:04:49.542Z,48.60
2018-11-25T05:07:22.001Z,48.39
2018-11-25T05:09:53.351Z,47.25
2018-11-25T05:12:24.781Z,46.38
2018-11-25T05:14:56.365Z,45.81
2018-11-25T05:17:27.928Z,44.76
2018-11-25T05:19:59.482Z,46.50
2018-11-25T05:22:31.100Z,45.88
2018-11-25T05:25:02.605Z,43.14
2018-11-25T05:27:34.223Z,45.70
2018-11-25T05:30:06.500Z,46.02
2018-11-25T05:32:38.098Z,45.21
2018-11-25T05:35:11.293Z,45.63
2018-11-25T05:37:43.091Z,44.98
2018-11-25T05:40:18.130Z,43.67
2018-11-25T05:42:49.589Z,44.31
2018-11-25T05:45:21.908Z,46.92
2018-11-25T05:47:53.299Z,46.01
2018-11-25T05:50:25.167Z,44.97
2018-11-25T05:52:57.747Z,45.66
2018-11-25T05:55:29.211Z,44.89
2018-11-25T05:58:00.658Z,43.75
2018-11-25T06:00:35.044Z,44.83
2018-11-25T06:03:06.582Z,43.53
2018-11-25T06:05:39.670Z,44.79
2018-11-25T06:08:11.802Z,43.53
2018-11-25T06:10:46.185Z,43.00
2018-11-25T06:13:18.874Z,42.55
2018-11-25T06:15:54.034Z,43.91
2018-11-25T06:18:25.552Z,44.18
2018-11-25T06:20:57.273Z,44.58
2018-11-25T06:23:28.775Z,44.68
2018-11-25T06:26:01.304Z,46.36
2018-11-25T06:28:32.860Z,41.93
2018-11-25T06:31:04.547Z,45.71
2018-11-25T06:33:36.111Z,41.07
2018-11-25T06:36:07.911Z,41.75
2018-11-25T06:38:39.729Z,40.66
2018-11-25T06:41:15.079Z,43.92
2018-11-25T06:43:53.389Z,41.22
2018-11-25T06:46:24.220Z,43.20
2018-11-25T06:48:56.975Z,40.70
2018-11-25T06:51:28.439Z,40.54
2018-11-25T06:54:00.197Z,40.47
2018-11-25T06:56:31.932Z,42.87
2018-11-25T06:59:03.588Z,41.93
2018-11-25T07:01:35.194Z,40.25
2018-11-25T07:04:06.917Z,43.50
2018-11-25T07:06:38.894Z,38.94
2018-11-25T07:09:12.183Z,41.81
2018-11-25T07:11:44.497Z,42.17
2018-11-25T07:14:19.893Z,37.92
2018-11-25T07:16:51.469Z,41.49
2018-11-25T07:19:23.133Z,38.75
2018-11-25T07:21:54.506Z,37.17
2018-11-25T07:24:26.252Z,38.21
2018-11-25T07:26:58.097Z,37.95
2018-11-25T07:29:30.635Z,38.02
2018-11-25T07:32:02.427Z,38.24
2018-11-25T07:34:34.079Z,37.71
2018-11-25T07:37:05.827Z,36.10
2018-11-25T07:39:37.545Z,35.58
2018-11-25T07:42:09.168Z,35.69
2018-11-25T07:44:41.386Z,37.16
2018-11-25T07:47:13.038Z,37.25
2018-11-25T07:49:44.902Z,34.46
2018-11-25T07:52:16.585Z,33.12
2018-11-25T07:54:49.041Z,32.57
2018-11-25T07:57:26.121Z,33.54
2018-11-25T07:59:57.709Z,34.96
2018-11-25T08:02:29.294Z,34.93
2018-11-25T08:05:01.923Z,33.25
2018-11-25T08:07:34.199Z,33.55
2018-11-25T08:10:10.924Z,34.56
2018-11-25T08:12:42.606Z,35.53
2018-11-25T08:15:17.677Z,34.89
2018-11-25T08:17:50.390Z,34.54
2018-11-25T08:20:22.599Z,38.00
2018-11-25T08:22:54.735Z,37.19
2018-11-25T08:25:27.255Z,37.74
2018-11-25T08:28:04.141Z,35.46
2018-11-25T08:30:35.807Z,34.14
2018-11-25T08:33:07.665Z,38.32
2018-11-25T08:35:39.450Z,37.76
2018-11-25T08:38:11.211Z,37.94
2018-11-25T08:40:43.829Z,35.03
2018-11-25T08:43:15.539Z,36.64
2018-11-25T08:57:38.335Z,36.95
2018-11-25T09:00:15.662Z,35.80
2018-11-25T09:32:45.330Z,35.33
2018-11-25T09:35:17.240Z,38.68
2018-11-25T09:37:49.792Z,38.69
2018-11-25T09:40:24.196Z,36.16
2018-11-25T09:42:55.893Z,35.97
2018-11-25T09:45:27.545Z,38.71
2018-11-25T09:47:59.379Z,37.46
2018-11-25T09:50:33.144Z,36.85
2018-11-25T09:53:04.887Z,36.17
2018-11-25T09:55:37.548Z,36.12
2018-11-25T09:58:09.150Z,37.33
2018-11-25T10:00:41.653Z,35.52
2018-11-25T10:03:17.316Z,37.13
2018-11-25T10:05:49.512Z,38.55
2018-11-25T10:08:21.125Z,39.63
2018-11-25T10:10:55.888Z,39.93
2018-11-25T10:13:27.329Z,40.29
2018-11-25T10:15:58.949Z,37.16
2018-11-25T10:18:30.530Z,35.51
2018-11-25T10:21:01.985Z,38.74
2018-11-25T10:23:33.435Z,39.28
2018-11-25T10:26:05.082Z,38.39
2018-11-25T10:28:36.916Z,36.93
2018-11-25T10:31:08.665Z,40.54
2018-11-25T10:33:40.207Z,39.43
2018-11-25T10:36:12.222Z,40.01
2018-11-25T10:38:44.752Z,40.56
2018-11-25T10:41:16.567Z,39.62
2018-11-25T10:43:48.063Z,39.53
2018-11-25T10:46:19.524Z,41.15
2018-11-25T10:48:56.643Z,39.96
2018-11-25T10:51:28.254Z,40.05
2018-11-25T10:53:59.850Z,42.26
2018-11-25T10:56:31.489Z,40.01
2018-11-25T10:59:03.199Z,41.92
2018-11-25T11:01:52.130Z,41.50
2018-11-25T11:04:30.563Z,41.84
2018-11-25T11:07:09.041Z,41.55
2018-11-25T11:09:42.427Z,42.09
2018-11-25T11:12:15.904Z,42.15
2018-11-25T11:14:48.766Z,43.43
2018-11-25T11:17:24.231Z,42.85
2018-11-25T11:19:55.668Z,43.30
2018-11-25T11:22:27.195Z,43.76
2018-11-25T11:24:59.610Z,42.69
2018-11-25T11:27:31.314Z,43.12
2018-11-25T11:30:03.941Z,43.04
2018-11-25T11:32:39.272Z,43.82
2018-11-25T11:35:11.082Z,44.04
2018-11-25T11:37:42.638Z,44.23
2018-11-25T11:40:18.677Z,43.17
2018-11-25T11:42:51.463Z,43.71
2018-11-25T11:45:22.914Z,43.84
2018-11-25T11:47:55.421Z,43.19
2018-11-25T11:50:27.140Z,43.84
2018-11-25T11:52:59.506Z,42.97
2018-11-25T11:55:31.123Z,42.72
2018-11-25T11:58:03.691Z,43.44
2018-11-25T12:00:39.085Z,43.25
2018-11-25T12:03:13.755Z,43.24
2018-11-25T12:05:46.564Z,44.08
2018-11-25T12:08:18.149Z,43.75
2018-11-25T12:13:51.761Z,44.79
2018-11-25T12:16:24.258Z,44.86
2018-11-25T12:18:55.999Z,45.20
2018-11-25T12:21:33.421Z,44.67
2018-11-25T12:24:04.999Z,44.37
2018-11-25T12:26:36.656Z,44.62
2018-11-25T12:29:10.218Z,44.78
2018-11-25T12:31:41.872Z,44.50
2018-11-25T12:34:13.390Z,45.16
2018-11-25T12:36:44.941Z,45.82
2018-11-25T12:39:16.509Z,46.14
2018-11-25T12:41:48.718Z,45.62
2018-11-25T12:44:20.184Z,45.74
2018-11-25T12:46:51.749Z,46.19
2018-11-25T12:49:23.483Z,46.39
2018-11-25T12:51:55.155Z,46.51
2018-11-25T12:54:26.534Z,47.40
2018-11-25T12:56:58.048Z,47.38
2018-11-25T12:59:29.426Z,46.88
2018-11-25T13:02:01.025Z,47.40
2018-11-25T13:04:32.680Z,47.14
2018-11-25T13:07:09.636Z,47.43
2018-11-25T13:09:41.282Z,47.09
2018-11-25T13:12:13.565Z,47.42
2018-11-25T13:14:45.306Z,46.90
2018-11-25T13:17:16.773Z,47.15
2018-11-25T13:19:48.444Z,47.25
2018-11-25T13:22:19.979Z,47.82
2018-11-25T13:24:51.342Z,47.15
2018-11-25T13:27:22.894Z,47.02
2018-11-25T13:29:54.253Z,47.24
2018-11-25T13:32:25.758Z,47.71
2018-11-25T13:34:57.179Z,47.22
2018-11-25T13:37:28.816Z,47.98
2018-11-25T13:40:00.364Z,48.13
2018-11-25T13:42:32.574Z,48.27
2018-11-25T13:45:02.435Z,48.12
2018-11-25T13:47:34.985Z,48.47
2018-11-25T13:50:06.586Z,48.49
2018-11-25T13:52:38.232Z,48.45
2018-11-25T13:55:16.125Z,47.76
2018-11-25T13:57:47.607Z,48.60
2018-11-25T14:00:48.572Z,48.16
2018-11-25T14:03:50.619Z,48.34
2018-11-25T14:06:22.145Z,47.79
2018-11-25T14:08:56.786Z,47.81
2018-11-25T14:11:29.233Z,48.45
2018-11-25T14:14:01.722Z,48.41
2018-11-25T14:16:34.995Z,48.21
2018-11-25T14:19:05.928Z,48.75
2018-11-25T14:21:37.343Z,48.06
2018-11-25T14:24:08.767Z,46.81
2018-11-25T14:26:42.892Z,47.80
2018-11-25T14:29:15.101Z,48.36
2018-11-25T14:31:46.556Z,48.26
2018-11-25T14:34:18.033Z,48.29
2018-11-25T14:36:49.334Z,49.21
2018-11-25T14:39:20.980Z,48.48
2018-11-25T14:41:52.718Z,48.25
2018-11-25T14:44:24.316Z,47.78
2018-11-25T14:46:56.712Z,48.82
2018-11-25T14:49:28.218Z,48.79
2018-11-25T14:51:59.641Z,48.56
2018-11-25T14:54:31.095Z,48.69
2018-11-25T14:57:02.454Z,31.85
2018-11-25T14:59:33.774Z,16.49
2018-11-25T15:02:05.250Z,14.23
2018-11-25T15:04:37.011Z,13.16
2018-11-25T15:07:08.558Z,12.88
2018-11-25T15:09:39.934Z,13.19
2018-11-25T15:12:11.321Z,12.66
2018-11-25T15:14:42.635Z,21.83
2018-11-25T15:17:14.311Z,36.84
2018-11-25T15:19:45.699Z,42.60
2018-11-25T15:22:17.311Z,44.27
2018-11-25T15:24:48.724Z,45.91
2018-11-25T15:27:20.257Z,46.37
2018-11-25T15:29:52.347Z,46.57
2018-11-25T15:32:24.179Z,47.49
2018-11-25T15:34:55.606Z,48.37
2018-11-25T15:37:27.114Z,48.32
2018-11-25T15:39:59.148Z,48.81
2018-11-25T15:42:31.343Z,48.37
2018-11-25T15:45:03.066Z,49.12
2018-11-25T15:47:35.281Z,48.53
2018-11-25T15:50:11.815Z,47.97
2018-11-25T15:52:43.517Z,47.89
2018-11-25T15:55:16.288Z,47.68
2018-11-25T15:57:48.318Z,48.34
2018-11-25T16:00:21.444Z,47.90
2018-11-25T16:02:53.238Z,47.30
2018-11-25T16:05:27.713Z,47.91
2018-11-25T16:07:59.338Z,48.96
2018-11-25T16:10:31.411Z,48.28
2018-11-25T16:13:03.192Z,48.08
2018-11-25T16:15:34.991Z,48.10
2018-11-25T16:18:07.034Z,49.23
2018-11-25T16:20:39.441Z,48.51
2018-11-25T16:23:12.004Z,49.54
2018-11-25T16:25:50.186Z,49.63
2018-11-25T16:28:27.990Z,49.14
2018-11-25T16:31:00.303Z,48.55
2018-11-25T16:33:32.024Z,49.16
2018-11-25T16:36:03.628Z,49.18
2018-11-25T16:38:36.458Z,49.18
2018-11-25T16:41:08.856Z,48.75
2018-11-25T16:43:40.795Z,48.81
2018-11-25T16:46:12.906Z,48.48
2018-11-25T16:48:44.770Z,48.53
2018-11-25T16:51:16.940Z,49.69
2018-11-25T16:53:48.927Z,48.56
2018-11-25T16:56:20.896Z,48.99
2018-11-25T16:58:52.695Z,49.68
2018-11-25T17:01:25.010Z,48.93
2018-11-25T17:03:56.829Z,48.87
2018-11-25T17:06:28.547Z,49.23
2018-11-25T17:09:02.838Z,48.68
2018-11-25T17:11:35.199Z,49.39
2018-11-25T17:14:07.563Z,49.20
2018-11-25T17:16:39.081Z,49.00
2018-11-25T17:19:10.784Z,49.33
2018-11-25T17:21:42.775Z,49.20
2018-11-25T17:24:14.518Z,49.83
2018-11-25T17:26:46.178Z,49.79
2018-11-25T17:29:17.667Z,50.19
2018-11-25T17:31:50.166Z,49.61
2018-11-25T17:34:22.087Z,49.48
2018-11-25T17:36:54.210Z,50.02
2018-11-25T17:39:26.076Z,50.23
2018-11-25T17:41:57.465Z,50.43
2018-11-25T17:44:29.531Z,49.96
2018-11-25T17:47:01.196Z,50.14
2018-11-25T17:49:34.072Z,49.68
2018-11-25T17:52:06.044Z,49.45
2018-11-25T17:54:37.958Z,50.03
2018-11-25T17:57:10.008Z,50.16
2018-11-25T17:59:41.454Z,50.36
2018-11-25T18:02:13.597Z,50.41
2018-11-25T18:04:45.444Z,50.16
2018-11-25T18:07:17.559Z,49.93
2018-11-25T18:09:49.212Z,50.60
2018-11-25T18:12:21.291Z,51.03
2018-11-25T18:14:53.662Z,51.55
2018-11-25T18:17:25.759Z,50.86
2018-11-25T18:19:57.897Z,51.20
2018-11-25T18:22:31.950Z,51.36
2018-11-25T18:25:03.406Z,51.52
2018-11-25T18:27:35.094Z,50.67
2018-11-25T18:30:08.124Z,51.47
2018-11-25T18:32:40.446Z,51.99
2018-11-25T18:35:12.305Z,52.12
2018-11-25T18:37:43.911Z,52.18
2018-11-25T18:40:16.076Z,51.49
2018-11-25T18:42:47.707Z,52.22
2018-11-25T18:45:20.186Z,51.73
2018-11-25T18:47:52.545Z,52.38
2018-11-25T18:50:24.036Z,52.57
2018-11-25T18:52:56.823Z,52.46
2018-11-25T18:55:25.560Z,52.39
2018-11-25T18:57:57.281Z,52.87
2018-11-25T19:00:32.773Z,52.79
2018-11-25T19:03:04.569Z,53.20
2018-11-25T19:05:36.392Z,52.60
2018-11-25T19:08:08.936Z,52.80
2018-11-25T19:10:40.858Z,53.02
2018-11-25T19:13:12.582Z,53.66
2018-11-25T19:15:44.780Z,53.72
2018-11-25T19:18:16.307Z,53.77
2018-11-25T19:20:48.568Z,53.30
2018-11-25T19:23:20.939Z,53.19
2018-11-25T19:25:52.767Z,53.96
2018-11-25T19:28:24.839Z,54.32
2018-11-25T19:30:56.703Z,54.40
2018-11-25T19:33:28.476Z,54.69
2018-11-25T19:35:59.925Z,54.04
2018-11-25T19:38:31.608Z,54.22
2018-11-25T19:41:03.797Z,54.43
2018-11-25T19:43:35.519Z,53.74
2018-11-25T19:46:07.444Z,54.58
2018-11-25T19:48:38.936Z,55.01
2018-11-25T19:51:17.351Z,55.07
2018-11-25T19:53:44.638Z,55.32
2018-11-25T19:56:16.354Z,54.59
2018-11-25T19:58:47.991Z,54.94
2018-11-25T20:01:19.822Z,54.42
2018-11-25T20:03:51.697Z,54.59
2018-11-25T20:06:23.138Z,54.40
2018-11-25T20:08:54.518Z,55.11
2018-11-25T20:11:26.083Z,55.46
2018-11-25T20:13:57.877Z,55.97
2018-11-25T20:16:34.228Z,56.32
2018-11-25T20:19:05.852Z,56.16
2018-11-25T20:21:42.297Z,56.57
2018-11-25T20:24:14.371Z,55.79
2018-11-25T20:26:51.012Z,55.61
2018-11-25T20:29:22.466Z,54.97
2018-11-25T20:31:58.899Z,56.18
2018-11-25T20:34:30.394Z,56.70
2018-11-25T20:37:01.953Z,56.49
2018-11-25T20:39:36.043Z,56.81
2018-11-25T20:42:07.912Z,56.26
2018-11-25T20:44:39.702Z,56.78
2018-11-25T20:47:11.312Z,56.36
2018-11-25T20:49:42.852Z,56.43
2018-11-25T20:52:19.118Z,56.36
2018-11-25T20:54:51.033Z,56.43
2018-11-25T20:57:22.913Z,55.42
2018-11-25T20:59:54.378Z,56.15
2018-11-25T21:02:29.305Z,55.22
2018-11-25T21:04:58.369Z,55.68
2018-11-25T21:07:29.951Z,54.78
2018-11-25T21:10:01.634Z,55.95
2018-11-25T21:12:33.152Z,55.91
2018-11-25T21:15:05.300Z,55.98
2018-11-25T21:17:36.862Z,55.67
2018-11-25T21:20:16.988Z,55.66
2018-11-25T21:22:48.948Z,56.22
2018-11-25T21:25:22.390Z,55.82
2018-11-25T21:27:54.404Z,56.38
2018-11-25T21:30:27.524Z,55.91
2018-11-25T21:33:00.117Z,56.32
2018-11-25T21:35:31.655Z,56.46
2018-11-25T21:38:03.221Z,55.89
2018-11-25T21:40:35.242Z,56.25
2018-11-25T21:43:06.925Z,55.94
2018-11-25T21:45:38.740Z,55.21
2018-11-25T21:48:10.149Z,55.53
2018-11-25T21:50:42.003Z,54.51
2018-11-25T21:53:13.438Z,54.59
2018-11-25T21:55:45.667Z,53.87
2018-11-25T21:58:17.619Z,54.78
2018-11-25T22:00:49.418Z,53.92
2018-11-25T22:03:21.656Z,53.58
2018-11-25T22:05:53.693Z,54.21
2018-11-25T22:08:25.439Z,53.92
2018-11-25T22:10:57.663Z,54.01
2018-11-25T22:13:29.611Z,54.07
2018-11-25T22:16:01.973Z,53.91
2018-11-25T22:18:34.008Z,53.79
2018-11-25T22:21:05.616Z,53.59
2018-11-25T22:23:37.982Z,53.76
2018-11-25T22:26:09.551Z,54.13
2018-11-25T22:28:41.538Z,53.69
2018-11-25T22:31:13.104Z,54.17
2018-11-25T22:33:45.395Z,53.48
2018-11-25T22:36:17.277Z,54.24
2018-11-25T22:38:48.802Z,54.13
2018-11-25T22:41:20.208Z,53.97
2018-11-25T22:43:51.873Z,53.44
2018-11-25T22:46:23.733Z,53.57
2018-11-25T22:48:55.359Z,53.80
2018-11-25T22:51:26.880Z,53.26
2018-11-25T22:53:58.439Z,53.02
2018-11-25T22:56:29.953Z,53.00
2018-11-25T22:59:01.533Z,52.93
2018-11-25T23:01:33.174Z,52.66
2018-11-25T23:04:14.800Z,52.74
2018-11-25T23:07:08.322Z,52.68
2018-11-25T23:09:40.346Z,53.09
2018-11-25T23:12:13.107Z,52.46
2018-11-25T23:14:45.005Z,53.13
2018-11-25T23:17:16.648Z,53.78
2018-11-25T23:19:48.437Z,53.68
2018-11-25T23:22:20.311Z,53.56
2018-11-25T23:24:52.213Z,53.84
2018-11-25T23:27:23.653Z,53.83
2018-11-25T23:29:55.308Z,53.84
2018-11-25T23:32:26.702Z,54.19
2018-11-25T23:34:58.025Z,53.83
2018-11-25T23:37:29.446Z,53.83
2018-11-25T23:40:01.473Z,54.15
2018-11-25T23:42:33.378Z,53.77
2018-11-25T23:45:05.554Z,53.72
2018-11-25T23:47:37.876Z,54.71
2018-11-25T23:50:11.128Z,54.01
2018-11-25T23:52:43.328Z,54.31
2018-11-25T23:55:15.664Z,54.36
2018-11-25T23:57:47.454Z,54.39
